Time;durP1;ratioP1;P1;durP2;ratioP2;P2;SDS_P1;SDS_P2;PMS_P1;PMS_P2;Temp;Humidity;BMP_temperature;BMP_pressure;BME280_temperature;BME280_humidity;BME280_pressure;Samples;Min_cycle;Max_cycle;Signal;HPM_P1;HPM_P2
2022/01/23 00:00:22;;;;;;;8.15;2.85;;;6.90;99.90;;;;;;4916657;29;20115;-70
2022/01/23 00:02:50;;;;;;;6.88;2.30;;;6.40;99.90;;;;;;4884328;29;20067;-69
2022/01/23 00:05:18;;;;;;;7.47;2.15;;;6.80;99.90;;;;;;4900062;29;20056;-71
2022/01/23 00:07:45;;;;;;;7.55;2.95;;;6.20;99.90;;;;;;4900356;29;20056;-69
2022/01/23 00:10:11;;;;;;;3.30;1.30;;;6.90;99.90;;;;;;4916792;29;20052;-69
2022/01/23 00:12:46;;;;;;;4.15;1.40;;;6.50;99.90;;;;;;4916773;29;20058;-70
2022/01/23 00:17:56;;;;;;;2.65;1.00;;;6.40;99.90;;;;;;4899835;29;20465;-72
2022/01/23 00:20:22;;;;;;;5.38;1.73;;;6.40;99.90;;;;;;4916674;29;20484;-67
2022/01/23 00:22:54;;;;;;;5.63;1.20;;;6.50;99.90;;;;;;4916714;29;20044;-67
2022/01/23 00:30:52;;;;;;;3.70;1.25;;;6.50;99.90;;;;;;4885901;29;20060;-74
2022/01/23 00:33:18;;;;;;;5.35;1.30;;;6.40;99.90;;;;;;4899493;29;20484;-70
2022/01/23 00:35:46;;;;;;;5.68;1.83;;;6.50;99.90;;;;;;4884361;29;20058;-68
2022/01/23 00:38:13;;;;;;;4.63;1.60;;;7.40;99.90;;;;;;4916425;29;20449;-68
2022/01/23 00:40:41;;;;;;;3.65;1.35;;;6.40;99.90;;;;;;4916435;29;20051;-68
2022/01/23 00:43:15;;;;;;;6.65;1.30;;;6.20;99.90;;;;;;4916363;29;20064;-67
2022/01/23 00:45:56;;;;;;;4.88;1.10;;;7.00;99.90;;;;;;4916147;29;20107;-72
2022/01/23 00:48:26;;;;;;;5.22;1.33;;;7.40;99.90;;;;;;4885839;29;20048;-72
2022/01/23 00:50:53;;;;;;;6.65;1.33;;;6.60;99.90;;;;;;4899595;29;20048;-68
2022/01/23 00:53:19;;;;;;;3.50;1.10;;;6.40;99.90;;;;;;4916161;29;20059;-71
2022/01/23 00:55:47;;;;;;;4.35;1.15;;;6.80;99.90;;;;;;4899470;29;20062;-69
2022/01/23 00:58:13;;;;;;;4.75;1.10;;;6.60;99.90;;;;;;4915269;29;20048;-75
2022/01/23 01:00:41;;;;;;;6.18;1.40;;;6.90;99.90;;;;;;4883786;29;20589;-69
2022/01/23 01:03:08;;;;;;;3.22;1.50;;;6.80;99.90;;;;;;4883819;29;20081;-73
2022/01/23 01:05:34;;;;;;;4.93;2.28;;;6.50;99.90;;;;;;4899061;29;20052;-77
2022/01/23 01:08:01;;;;;;;4.68;2.45;;;6.50;99.90;;;;;;4883773;29;20066;-74
2022/01/23 01:10:45;;;;;;;5.55;2.33;;;6.50;99.90;;;;;;4898537;29;20489;-73
2022/01/23 01:13:13;;;;;;;5.18;2.40;;;7.10;99.90;;;;;;4885940;29;20493;-74
2022/01/23 01:16:24;;;;;;;4.82;2.50;;;6.80;99.90;;;;;;4898971;29;20052;-73
2022/01/23 01:32:11;;;;;;;4.05;1.58;;;6.70;99.90;;;;;;4888931;29;20159;-75
2022/01/23 01:34:45;;;;;;;6.88;1.65;;;6.60;99.90;;;;;;4887036;29;20084;-76
2022/01/23 01:37:12;;;;;;;7.20;1.58;;;6.70;99.90;;;;;;4887703;29;20489;-76
2022/01/23 01:39:38;;;;;;;5.43;1.80;;;7.10;99.90;;;;;;4886507;29;20096;-76
2022/01/23 01:42:04;;;;;;;2.92;1.73;;;6.50;99.90;;;;;;4919162;29;20048;-76
2022/01/23 01:44:30;;;;;;;4.88;2.10;;;6.50;99.90;;;;;;4886471;29;20060;-76
2022/01/23 01:46:56;;;;;;;5.78;1.95;;;7.20;99.90;;;;;;4886500;29;20070;-76
2022/01/23 01:49:31;;;;;;;4.32;1.90;;;6.50;99.90;;;;;;4917167;29;20446;-76
2022/01/23 01:51:58;;;;;;;6.05;1.40;;;6.70;99.90;;;;;;4901892;29;20058;-76
2022/01/23 01:54:27;;;;;;;5.28;1.50;;;7.30;99.90;;;;;;4901833;29;20400;-76
2022/01/23 01:57:08;;;;;;;4.65;1.55;;;6.50;99.90;;;;;;4917924;29;20056;-76
2022/01/23 02:10:32;;;;;;;4.20;1.50;;;6.30;99.90;;;;;;4888464;29;20567;-75
2022/01/23 02:13:12;;;;;;;4.00;1.73;;;6.60;99.90;;;;;;4885614;29;20196;-76
2022/01/23 02:22:30;;;;;;;3.75;1.50;;;7.10;99.90;;;;;;4901347;29;20115;-76
2022/01/23 02:56:46;;;;;;;3.83;1.63;;;6.70;99.90;;;;;;4900281;29;20048;-76
2022/01/23 02:59:20;;;;;;;5.00;1.67;;;6.30;99.90;;;;;;4886172;29;20502;-76
2022/01/23 03:02:13;;;;;;;3.42;1.55;;;6.30;99.90;;;;;;4917559;29;20044;-75
2022/01/23 03:04:36;;;;;;;3.42;1.75;;;7.00;99.90;;;;;;4887443;29;20048;-76
2022/01/23 03:12:27;;;;;;;2.67;1.88;;;6.60;99.90;;;;;;4900540;29;20074;-76
2022/01/23 03:15:00;;;;;;;5.20;1.73;;;6.80;99.90;;;;;;4900287;29;20056;-76
2022/01/23 03:28:39;;;;;;;4.10;1.90;;;7.40;99.90;;;;;;4873452;29;20055;-76
2022/01/23 03:31:25;;;;;;;5.15;2.38;;;6.60;99.90;;;;;;4873341;29;20382;-76
2022/01/23 03:33:52;;;;;;;4.38;2.10;;;6.30;99.90;;;;;;4900667;29;20066;-76
2022/01/23 03:36:17;;;;;;;4.90;1.95;;;6.30;99.90;;;;;;4900490;29;20060;-76
2022/01/23 03:38:44;;;;;;;4.53;1.92;;;6.60;99.90;;;;;;4900061;29;20048;-77
2022/01/23 03:41:10;;;;;;;3.95;1.65;;;6.40;99.90;;;;;;4869423;29;20138;-76
2022/01/23 03:43:38;;;;;;;5.03;1.90;;;6.70;99.90;;;;;;4916940;29;20048;-76
2022/01/23 03:51:21;;;;;;;3.92;1.67;;;6.50;99.90;;;;;;4900336;29;20078;-76
2022/01/23 03:53:47;;;;;;;5.28;2.00;;;6.70;99.90;;;;;;4900187;29;20131;-76
2022/01/23 03:56:14;;;;;;;4.43;2.00;;;6.60;99.90;;;;;;4899290;29;20048;-76
2022/01/23 03:58:41;;;;;;;4.82;2.28;;;6.40;99.90;;;;;;4884545;29;20411;-75
2022/01/23 04:01:07;;;;;;;4.93;2.00;;;6.40;99.90;;;;;;4900452;29;20087;-76
2022/01/23 04:03:36;;;;;;;4.90;1.70;;;6.40;99.90;;;;;;4916994;29;20052;-76
2022/01/23 04:06:01;;;;;;;4.03;1.60;;;6.30;99.90;;;;;;4900425;29;20135;-76
2022/01/23 04:08:27;;;;;;;5.55;2.00;;;6.40;99.90;;;;;;4899931;29;20581;-76
2022/01/23 04:10:53;;;;;;;4.15;2.00;;;6.50;99.90;;;;;;4884447;29;20341;-76
2022/01/23 04:13:25;;;;;;;5.15;2.03;;;6.40;99.90;;;;;;4899952;29;20048;-76
2022/01/23 04:34:51;;;;;;;4.50;2.08;;;6.40;99.90;;;;;;4900543;29;20048;-76
2022/01/23 04:45:35;;;;;;;4.85;1.88;;;7.00;99.90;;;;;;4890154;29;20123;-76
2022/01/23 05:04:28;;;;;;;4.20;1.33;;;6.50;99.90;;;;;;4919648;29;20485;-76
2022/01/23 05:07:09;;;;;;;3.65;1.52;;;6.60;99.90;;;;;;4902987;29;20488;-75
2022/01/23 05:09:35;;;;;;;4.70;1.77;;;6.40;99.90;;;;;;4902427;29;20052;-76
2022/01/23 05:12:04;;;;;;;5.07;1.67;;;6.70;99.90;;;;;;4919694;29;20048;-76
2022/01/23 05:14:43;;;;;;;4.45;1.80;;;6.30;99.90;;;;;;4902652;29;20059;-76
2022/01/23 05:17:11;;;;;;;4.47;1.80;;;6.40;99.90;;;;;;4902906;29;20052;-76
2022/01/23 05:19:38;;;;;;;4.93;1.50;;;6.30;99.90;;;;;;4887047;29;20469;-76
2022/01/23 05:24:57;;;;;;;3.78;1.70;;;6.30;99.90;;;;;;4902794;29;20142;-76
2022/01/23 05:27:23;;;;;;;4.72;1.80;;;6.70;99.90;;;;;;4901921;29;20084;-76
2022/01/23 05:29:50;;;;;;;4.10;1.55;;;6.60;99.90;;;;;;4902307;29;20511;-76
2022/01/23 05:32:17;;;;;;;5.85;1.58;;;6.70;99.90;;;;;;4919054;29;20044;-76
2022/01/23 05:34:44;;;;;;;3.30;1.60;;;6.40;99.90;;;;;;4902161;29;20077;-76
2022/01/23 05:37:10;;;;;;;3.92;1.70;;;6.50;99.90;;;;;;4902792;29;20484;-75
2022/01/23 05:39:36;;;;;;;4.63;1.65;;;7.00;99.90;;;;;;4902245;29;20048;-75
2022/01/23 05:42:07;;;;;;;4.10;1.98;;;6.90;99.90;;;;;;4902478;29;20048;-75
2022/01/23 05:44:35;;;;;;;4.32;1.48;;;6.50;99.90;;;;;;4886728;29;20091;-76
2022/01/23 05:47:01;;;;;;;2.63;1.42;;;6.30;99.90;;;;;;4885651;29;20123;-76
2022/01/23 05:49:27;;;;;;;4.32;1.90;;;7.10;99.90;;;;;;4901895;29;20060;-76
2022/01/23 05:51:53;;;;;;;5.43;1.80;;;6.40;99.90;;;;;;4917817;29;20452;-76
2022/01/23 05:54:19;;;;;;;4.47;1.50;;;5.70;99.90;;;;;;4918926;29;20187;-76
2022/01/23 05:56:44;;;;;;;4.15;1.63;;;6.50;99.90;;;;;;4916924;29;20127;-76
2022/01/23 05:59:10;;;;;;;5.00;1.60;;;6.70;99.90;;;;;;4902102;29;20452;-76
2022/01/23 06:01:36;;;;;;;2.58;1.50;;;6.60;99.90;;;;;;4901475;29;20051;-75
2022/01/23 06:04:01;;;;;;;2.85;1.35;;;6.50;99.90;;;;;;4917583;29;20104;-76
2022/01/23 06:06:27;;;;;;;3.88;1.65;;;6.70;99.90;;;;;;4918374;29;20139;-75
2022/01/23 06:08:53;;;;;;;5.05;1.70;;;6.60;99.90;;;;;;4886004;29;20044;-76
2022/01/23 06:11:18;;;;;;;4.32;1.70;;;6.30;99.90;;;;;;4901684;29;20108;-76
2022/01/23 06:13:44;;;;;;;5.70;1.73;;;6.50;99.90;;;;;;4901699;29;20048;-76
2022/01/23 06:16:10;;;;;;;2.28;1.60;;;6.50;99.90;;;;;;4918249;29;20048;-76
2022/01/23 06:18:38;;;;;;;3.35;1.70;;;6.30;99.90;;;;;;4886051;29;20138;-76
2022/01/23 06:21:04;;;;;;;3.30;1.73;;;6.30;99.90;;;;;;4901360;29;20552;-76
2022/01/23 06:23:31;;;;;;;4.57;1.77;;;6.80;99.90;;;;;;4901580;29;20063;-76
2022/01/23 06:25:57;;;;;;;3.45;1.63;;;6.30;99.90;;;;;;4901417;29;20127;-76
2022/01/23 06:28:54;;;;;;;3.03;1.58;;;6.50;99.90;;;;;;4917451;29;20044;-76
2022/01/23 06:31:19;;;;;;;4.72;1.75;;;6.10;99.90;;;;;;4893362;29;20092;-76
2022/01/23 06:33:45;;;;;;;3.35;1.60;;;6.40;99.90;;;;;;4917325;29;20048;-76
2022/01/23 06:36:11;;;;;;;4.63;2.22;;;6.30;99.90;;;;;;4917913;29;20052;-76
2022/01/23 06:38:36;;;;;;;3.85;1.83;;;6.20;99.90;;;;;;4901205;29;20044;-76
2022/01/23 06:41:03;;;;;;;3.75;1.73;;;7.20;99.90;;;;;;4885583;29;20397;-76
2022/01/23 06:43:28;;;;;;;2.80;1.70;;;6.10;99.90;;;;;;4900873;29;20056;-76
2022/01/23 06:45:54;;;;;;;3.72;1.80;;;6.40;99.90;;;;;;4917709;29;20388;-76
2022/01/23 06:48:20;;;;;;;3.90;2.55;;;6.10;99.90;;;;;;4901186;29;20048;-76
2022/01/23 06:50:46;;;;;;;3.40;2.00;;;6.40;99.90;;;;;;4901123;29;20048;-76
2022/01/23 06:53:11;;;;;;;4.60;1.90;;;6.50;99.90;;;;;;4916427;29;20055;-76
2022/01/23 06:55:37;;;;;;;2.70;1.52;;;6.40;99.90;;;;;;4917703;29;20136;-76
2022/01/23 06:58:03;;;;;;;4.32;1.80;;;6.10;99.90;;;;;;4899948;29;20056;-76
2022/01/23 07:00:28;;;;;;;4.07;2.13;;;6.10;99.90;;;;;;4900986;29;20044;-76
2022/01/23 07:02:54;;;;;;;4.57;2.05;;;6.10;99.90;;;;;;4885271;29;20044;-76
2022/01/23 07:05:20;;;;;;;5.57;2.10;;;6.30;99.90;;;;;;4900862;29;20516;-76
2022/01/23 07:07:46;;;;;;;3.08;1.90;;;6.20;99.90;;;;;;4917351;29;20103;-76
2022/01/23 07:10:11;;;;;;;4.35;1.95;;;6.10;99.90;;;;;;4869551;29;20099;-76
2022/01/23 07:12:37;;;;;;;5.45;2.00;;;6.00;99.90;;;;;;4900705;29;20059;-76
2022/01/23 07:15:03;;;;;;;4.00;1.80;;;6.40;99.90;;;;;;4901237;29;20052;-76
2022/01/23 07:17:29;;;;;;;4.53;1.83;;;6.00;99.90;;;;;;4900582;29;20040;-76
2022/01/23 07:19:54;;;;;;;4.75;2.15;;;6.20;99.90;;;;;;4917451;29;20087;-76
2022/01/23 07:22:20;;;;;;;5.35;2.15;;;6.10;99.90;;;;;;4885097;29;20110;-76
2022/01/23 07:24:46;;;;;;;3.55;1.88;;;6.50;99.90;;;;;;4917387;29;20056;-76
2022/01/23 07:27:18;;;;;;;3.88;1.88;;;7.00;99.90;;;;;;4899808;29;20052;-75
2022/01/23 07:29:45;;;;;;;3.92;2.10;;;5.90;99.90;;;;;;4901013;29;20064;-76
2022/01/23 07:32:10;;;;;;;3.83;2.00;;;6.10;99.90;;;;;;4917223;29;20600;-75
2022/01/23 07:34:36;;;;;;;5.45;2.50;;;6.30;99.90;;;;;;4917490;29;20131;-76
2022/01/23 07:37:02;;;;;;;3.55;1.83;;;6.10;99.90;;;;;;4917328;29;20060;-76
2022/01/23 07:39:28;;;;;;;3.25;1.92;;;6.30;99.90;;;;;;4917105;29;20196;-76
2022/01/23 07:41:54;;;;;;;4.15;2.05;;;7.00;99.90;;;;;;4900414;29;20067;-76
2022/01/23 07:44:20;;;;;;;3.65;1.95;;;6.30;99.90;;;;;;4900495;29;20052;-76
2022/01/23 07:46:45;;;;;;;5.53;1.88;;;6.20;99.90;;;;;;4900278;29;20099;-76
2022/01/23 07:49:11;;;;;;;4.10;1.65;;;7.10;99.90;;;;;;4916856;29;20040;-75
2022/01/23 07:51:37;;;;;;;3.40;1.85;;;6.10;99.90;;;;;;4915910;29;20062;-76
2022/01/23 07:54:03;;;;;;;2.75;1.70;;;6.80;99.90;;;;;;4916913;29;20087;-76
2022/01/23 07:56:29;;;;;;;4.78;1.83;;;6.10;99.90;;;;;;4916503;29;20686;-75
2022/01/23 07:58:55;;;;;;;2.75;2.00;;;6.20;99.90;;;;;;4900212;29;20048;-76
2022/01/23 08:01:21;;;;;;;5.53;2.00;;;6.90;99.90;;;;;;4869816;29;20086;-76
2022/01/23 08:03:46;;;;;;;3.13;1.70;;;6.20;99.90;;;;;;4884945;29;20456;-76
2022/01/23 08:06:12;;;;;;;2.67;1.52;;;6.60;99.90;;;;;;4916837;29;20095;-76
2022/01/23 08:08:39;;;;;;;3.53;1.92;;;6.60;99.90;;;;;;4900004;29;20514;-76
2022/01/23 08:11:06;;;;;;;5.35;1.88;;;6.30;99.90;;;;;;4919598;29;20498;-76
2022/01/23 08:13:32;;;;;;;3.40;1.63;;;6.90;99.90;;;;;;4888566;29;20112;-76
2022/01/23 08:15:58;;;;;;;4.55;1.73;;;6.60;99.90;;;;;;4888359;29;20044;-76
2022/01/23 08:18:23;;;;;;;2.72;1.83;;;6.60;99.90;;;;;;4920533;29;20103;-76
2022/01/23 08:20:49;;;;;;;3.10;1.67;;;6.40;99.90;;;;;;4903577;29;20052;-76
2022/01/23 08:23:15;;;;;;;4.10;2.42;;;6.30;99.90;;;;;;4903622;29;20059;-75
2022/01/23 08:25:41;;;;;;;3.08;2.03;;;6.30;99.90;;;;;;4920392;29;20044;-76
2022/01/23 08:28:09;;;;;;;4.05;2.45;;;6.30;99.90;;;;;;4903445;29;20404;-76
2022/01/23 08:30:35;;;;;;;4.05;1.85;;;6.70;99.90;;;;;;4919976;29;20068;-75
2022/01/23 08:33:01;;;;;;;4.53;2.10;;;6.60;99.90;;;;;;4887827;29;20378;-75
2022/01/23 08:35:28;;;;;;;4.43;2.10;;;6.40;99.90;;;;;;4887654;29;20539;-75
2022/01/23 08:37:54;;;;;;;5.13;2.40;;;6.50;99.90;;;;;;4871986;29;20488;-76
2022/01/23 08:40:35;;;;;;;4.72;2.50;;;6.50;99.90;;;;;;4919970;29;20107;-76
2022/01/23 08:43:01;;;;;;;6.82;2.65;;;6.90;99.90;;;;;;4902877;29;20048;-76
2022/01/23 08:45:26;;;;;;;3.90;2.10;;;6.50;99.90;;;;;;4903378;29;20106;-75
2022/01/23 08:47:52;;;;;;;4.38;2.40;;;6.50;99.90;;;;;;4887686;29;20048;-73
2022/01/23 08:50:18;;;;;;;5.45;2.50;;;6.60;99.90;;;;;;4925674;29;20044;-75
2022/01/23 08:52:44;;;;;;;4.75;2.28;;;6.70;99.90;;;;;;4911740;29;20055;-74
2022/01/23 08:55:10;;;;;;;6.63;2.50;;;6.70;99.90;;;;;;4889438;29;20539;-74
2022/01/23 08:57:36;;;;;;;5.57;2.40;;;6.70;99.90;;;;;;4887551;29;20507;-74
2022/01/23 09:00:04;;;;;;;4.10;2.10;;;6.90;99.90;;;;;;4911890;29;20162;-74
2022/01/23 09:02:29;;;;;;;4.18;1.50;;;6.60;99.90;;;;;;4929867;29;20055;-74
2022/01/23 09:04:56;;;;;;;4.78;1.48;;;6.80;99.90;;;;;;4927991;29;20417;-73
2022/01/23 09:07:22;;;;;;;3.60;1.67;;;6.90;99.90;;;;;;4911475;29;20142;-74
2022/01/23 09:09:48;;;;;;;2.65;1.92;;;6.60;99.90;;;;;;4929627;29;20048;-74
2022/01/23 09:14:48;;;;;;;5.25;1.20;;;6.70;99.90;;;;;;4911015;29;20088;-74
2022/01/23 09:17:14;;;;;;;3.05;1.15;;;7.20;99.90;;;;;;4929251;29;20456;-74
2022/01/23 09:19:40;;;;;;;2.72;1.30;;;7.00;99.90;;;;;;4928752;29;20165;-74
2022/01/23 09:22:06;;;;;;;2.33;1.38;;;6.80;99.90;;;;;;4910748;29;20044;-73
2022/01/23 09:24:32;;;;;;;3.63;1.70;;;6.60;99.90;;;;;;4912809;29;20387;-74
2022/01/23 09:27:04;;;;;;;3.30;1.40;;;7.00;99.90;;;;;;4902728;29;20048;-74
2022/01/23 09:29:35;;;;;;;3.10;1.40;;;7.10;99.90;;;;;;4906529;29;20075;-73
2022/01/23 09:32:03;;;;;;;4.25;1.52;;;7.10;99.90;;;;;;4925646;29;20055;-74
2022/01/23 09:34:32;;;;;;;3.58;1.48;;;7.10;99.90;;;;;;4928932;29;20051;-74
2022/01/23 09:37:00;;;;;;;2.50;1.30;;;7.10;99.90;;;;;;4911287;29;20079;-74
2022/01/23 09:39:27;;;;;;;2.95;1.50;;;7.00;99.90;;;;;;4910718;29;20044;-74
2022/01/23 09:42:04;;;;;;;3.38;1.40;;;6.90;99.90;;;;;;4910333;29;20111;-74
2022/01/23 09:44:35;;;;;;;2.05;1.10;;;6.80;99.90;;;;;;4912927;29;20043;-73
2022/01/23 09:47:01;;;;;;;4.32;1.50;;;7.20;99.90;;;;;;4903556;29;20060;-72
2022/01/23 09:49:30;;;;;;;4.72;1.50;;;6.90;99.90;;;;;;4912879;29;20080;-74
2022/01/23 09:52:00;;;;;;;2.85;1.20;;;7.40;99.90;;;;;;4926876;29;20463;-74
2022/01/23 09:54:29;;;;;;;2.53;0.80;;;7.20;99.90;;;;;;4911957;29;20044;-73
2022/01/23 09:57:01;;;;;;;2.22;0.90;;;7.20;99.90;;;;;;4892043;29;20405;-72
2022/01/23 09:59:28;;;;;;;2.55;0.90;;;6.90;99.90;;;;;;4901977;29;20152;-73
2022/01/23 10:01:56;;;;;;;3.10;0.95;;;7.30;99.90;;;;;;4924869;29;20397;-72
2022/01/23 10:04:23;;;;;;;1.65;0.85;;;7.00;99.90;;;;;;4910720;29;20054;-72
2022/01/23 10:06:48;;;;;;;1.48;0.63;;;7.00;99.90;;;;;;4911856;29;20507;-72
2022/01/23 10:09:15;;;;;;;1.75;0.60;;;7.30;99.90;;;;;;4926746;29;20036;-73
2022/01/23 10:11:42;;;;;;;1.23;0.75;;;7.50;99.90;;;;;;4879497;29;20052;-73
2022/01/23 10:14:09;;;;;;;1.30;0.50;;;7.80;99.90;;;;;;4911809;29;20127;-71
2022/01/23 10:16:35;;;;;;;0.90;0.50;;;8.00;99.90;;;;;;4926559;29;20527;-72
2022/01/23 10:19:04;;;;;;;1.15;0.50;;;7.20;99.90;;;;;;4910737;29;20071;-72
2022/01/23 10:21:34;;;;;;;1.58;0.40;;;7.50;99.90;;;;;;4928099;29;20126;-73
2022/01/23 10:24:00;;;;;;;1.17;0.47;;;7.80;99.90;;;;;;4927528;29;20099;-73
2022/01/23 10:26:48;;;;;;;0.85;0.50;;;7.40;99.90;;;;;;4926292;29;20043;-73
2022/01/23 10:29:21;;;;;;;1.88;0.43;;;7.20;99.90;;;;;;4909765;29;20566;-72
2022/01/23 10:32:08;;;;;;;1.43;0.40;;;8.10;99.90;;;;;;4912019;29;20244;-72
2022/01/23 10:34:49;;;;;;;2.25;0.50;;;7.10;99.90;;;;;;4920308;29;20056;-72
2022/01/23 10:37:26;;;;;;;1.17;0.50;;;7.40;99.90;;;;;;4905154;29;20138;-72
2022/01/23 10:39:52;;;;;;;0.50;0.30;;;7.70;99.90;;;;;;4926197;29;20051;-72
2022/01/23 10:47:55;;;;;;;0.50;0.30;;;7.30;99.90;;;;;;4901845;29;20051;-72
2022/01/23 10:50:24;;;;;;;0.50;0.30;;;7.60;99.90;;;;;;4908437;29;20098;-72
2022/01/23 10:52:53;;;;;;;0.80;0.30;;;7.60;99.90;;;;;;4889470;29;20059;-72
2022/01/23 10:55:23;;;;;;;0.28;0.20;;;7.60;99.90;;;;;;4909170;29;20047;-71
2022/01/23 10:57:51;;;;;;;0.40;0.30;;;7.80;99.90;;;;;;4906640;29;20074;-73
2022/01/23 11:00:21;;;;;;;0.50;0.30;;;7.80;99.90;;;;;;4909277;29;20055;-71
2022/01/23 11:02:47;;;;;;;0.85;0.20;;;7.40;99.90;;;;;;4910740;29;20131;-75
2022/01/23 11:05:16;;;;;;;0.38;0.20;;;7.70;99.90;;;;;;4906543;29;20104;-75
2022/01/23 11:07:44;;;;;;;0.30;0.10;;;7.60;99.90;;;;;;4879198;29;20051;-74
2022/01/23 11:10:16;;;;;;;0.55;0.20;;;7.90;99.90;;;;;;4910344;29;20110;-74
2022/01/23 11:17:21;;;;;;;0.35;0.17;;;7.60;99.90;;;;;;4910207;29;20183;-75
2022/01/23 11:18:33;;;;;;;0.20;0.10;;;7.70;99.90;;;;;;4909224;29;20079;-75
2022/01/23 11:21:14;;;;;;;0.10;0.10;;;7.50;99.90;;;;;;4924643;29;20044;-75
2022/01/23 11:23:39;;;;;;;0.40;0.10;;;7.80;99.90;;;;;;4907878;29;20051;-75
2022/01/23 11:26:07;;;;;;;1.13;0.10;;;8.00;99.90;;;;;;4925916;29;20106;-70
2022/01/23 11:28:40;;;;;;;0.43;0.10;;;7.60;99.90;;;;;;4926441;29;20071;-70
2022/01/23 11:31:09;;;;;;;0.28;0.10;;;7.60;99.90;;;;;;4927041;29;20059;-69
2022/01/23 11:33:35;;;;;;;1.15;0.10;;;7.60;99.90;;;;;;4925949;29;20543;-70
2022/01/23 11:36:01;;;;;;;0.20;0.20;;;7.80;99.90;;;;;;4926411;29;20091;-72
2022/01/23 11:38:28;;;;;;;0.82;0.30;;;7.60;99.90;;;;;;4927180;29;20505;-74
2022/01/23 11:54:39;;;;;;;1.00;0.25;;;7.40;99.90;;;;;;4914153;29;20506;-72
2022/01/23 11:57:25;;;;;;;1.65;0.30;;;7.90;99.90;;;;;;4905657;29;20052;-72
2022/01/23 11:59:50;;;;;;;0.85;0.30;;;7.30;99.90;;;;;;4913501;29;20126;-70
2022/01/23 12:02:26;;;;;;;0.98;0.40;;;7.70;99.90;;;;;;4929092;29;20528;-71
2022/01/23 12:05:21;;;;;;;0.93;0.30;;;8.10;99.90;;;;;;4912304;29;20050;-72
2022/01/23 12:08:15;;;;;;;0.50;0.30;;;7.30;99.90;;;;;;4929759;29;20056;-70
2022/01/23 12:11:04;;;;;;;0.57;0.20;;;7.30;99.90;;;;;;4923929;29;20060;-68
2022/01/23 12:16:26;;;;;;;0.63;0.30;;;7.40;99.90;;;;;;4929591;29;20044;-70
2022/01/23 12:16:34;;;;;;;0.47;0.40;;;7.50;99.90;;;;;;4908055;29;20062;-70
2022/01/23 12:19:19;;;;;;;0.85;0.20;;;7.60;99.90;;;;;;4929512;29;20050;-71
2022/01/23 12:21:46;;;;;;;1.00;0.20;;;7.50;99.90;;;;;;4927300;29;20156;-72
2022/01/23 12:24:15;;;;;;;1.00;0.30;;;7.70;99.90;;;;;;4921441;29;20044;-73
2022/01/23 12:26:45;;;;;;;0.40;0.40;;;7.40;99.90;;;;;;4912442;29;20056;-69
2022/01/23 12:29:11;;;;;;;0.40;0.40;;;7.50;99.90;;;;;;4928017;29;20052;-71
2022/01/23 12:31:38;;;;;;;0.30;0.30;;;8.10;99.90;;;;;;4929538;29;20067;-71
2022/01/23 12:34:04;;;;;;;0.30;0.20;;;7.50;99.90;;;;;;4929862;29;20520;-70
2022/01/23 12:36:38;;;;;;;0.50;0.30;;;7.60;99.90;;;;;;4928182;29;20080;-71
2022/01/23 12:39:06;;;;;;;0.55;0.30;;;7.70;99.90;;;;;;4912395;29;20044;-71
2022/01/23 12:41:36;;;;;;;1.63;0.30;;;7.20;99.90;;;;;;4913163;29;20497;-71
2022/01/23 12:44:23;;;;;;;0.50;0.20;;;7.60;99.90;;;;;;4929109;29;20048;-70
2022/01/23 12:46:57;;;;;;;0.98;0.38;;;7.20;99.90;;;;;;4929688;29;20551;-66
2022/01/23 12:49:45;;;;;;;0.50;0.30;;;7.30;99.90;;;;;;4912520;29;20115;-67
2022/01/23 12:52:12;;;;;;;0.73;0.20;;;7.30;99.90;;;;;;4929886;29;20496;-68
2022/01/23 12:54:46;;;;;;;0.43;0.20;;;7.50;99.90;;;;;;4911388;29;20059;-69
2022/01/23 12:57:14;;;;;;;0.40;0.30;;;7.40;99.90;;;;;;4910081;29;20122;-70
2022/01/23 12:59:42;;;;;;;0.43;0.20;;;7.20;99.90;;;;;;4912200;29;20545;-72
2022/01/23 13:02:16;;;;;;;0.45;0.25;;;7.20;99.90;;;;;;4900905;29;20062;-72
2022/01/23 13:04:44;;;;;;;0.50;0.50;;;7.30;99.90;;;;;;4928552;29;20108;-75
2022/01/23 13:07:42;;;;;;;0.35;0.30;;;7.30;99.90;;;;;;4927392;29;20052;-75
2022/01/23 13:16:33;;;;;;;2.63;1.48;;;7.40;99.90;;;;;;4907140;29;20377;-74
2022/01/23 13:34:49;;;;;;;1.17;0.70;;;8.30;99.90;;;;;;4887741;29;20072;-74
2022/01/23 13:37:17;;;;;;;0.98;0.60;;;7.50;99.90;;;;;;4908274;29;20524;-71
2022/01/23 13:39:52;;;;;;;0.57;0.40;;;7.70;99.90;;;;;;4928058;29;20099;-70
2022/01/23 13:42:47;;;;;;;0.60;0.30;;;7.60;99.90;;;;;;4925381;29;20047;-69
2022/01/23 13:59:23;;;;;;;1.70;0.88;;;7.60;99.90;;;;;;4910998;29;20065;-68
2022/01/23 14:04:20;;;;;;;2.17;1.30;;;7.50;99.90;;;;;;4910892;29;20055;-68
2022/01/23 14:06:46;;;;;;;2.30;1.00;;;8.10;99.90;;;;;;4909406;29;20044;-68
2022/01/23 14:09:13;;;;;;;2.22;0.80;;;7.60;99.90;;;;;;4896924;29;20044;-68
2022/01/23 14:11:40;;;;;;;0.98;0.68;;;7.60;99.90;;;;;;4921024;29;20051;-68
2022/01/23 14:14:16;;;;;;;2.22;0.60;;;7.60;99.90;;;;;;4927985;29;20051;-68
2022/01/23 14:16:44;;;;;;;0.65;0.50;;;7.60;99.90;;;;;;4925999;29;20044;-68
2022/01/23 14:19:19;;;;;;;0.93;0.57;;;7.90;99.90;;;;;;4926439;29;20048;-68
2022/01/23 14:21:51;;;;;;;0.90;0.50;;;7.60;99.90;;;;;;4926918;29;20054;-68
2022/01/23 14:24:27;;;;;;;0.70;0.50;;;7.30;99.90;;;;;;4897328;29;20059;-68
2022/01/23 14:27:10;;;;;;;2.17;0.47;;;7.60;99.90;;;;;;4909017;29;20048;-68
2022/01/23 14:29:53;;;;;;;;;;;7.80;99.90;;;;;;4924373;29;20048;-68
2022/01/23 14:32:32;;;;;;;1.98;0.60;;;7.80;99.90;;;;;;4924691;29;19971;-68
2022/01/23 14:35:28;;;;;;;1.13;0.60;;;7.60;99.90;;;;;;4926591;29;20083;-68
2022/01/23 14:38:08;;;;;;;1.25;0.40;;;7.60;99.90;;;;;;4910144;29;20055;-68
2022/01/23 14:40:34;;;;;;;3.28;0.60;;;7.90;99.90;;;;;;4923770;29;20052;-68
2022/01/23 14:43:10;;;;;;;1.38;0.68;;;7.60;99.90;;;;;;4927217;29;20491;-68
2022/01/23 14:45:45;;;;;;;2.17;0.70;;;7.50;99.90;;;;;;4907224;29;20059;-68
2022/01/23 14:48:13;;;;;;;1.02;0.60;;;7.70;99.90;;;;;;4925933;29;20071;-68
2022/01/23 14:50:43;;;;;;;2.25;0.57;;;7.90;99.90;;;;;;4927164;29;20051;-68
2022/01/23 14:53:17;;;;;;;1.77;0.47;;;7.70;99.90;;;;;;4910814;29;20075;-68
2022/01/23 14:55:46;;;;;;;0.80;0.50;;;7.50;99.90;;;;;;4908897;29;20048;-68
2022/01/23 14:58:14;;;;;;;1.05;0.50;;;7.80;99.90;;;;;;4925411;29;20055;-68
2022/01/23 15:00:41;;;;;;;1.65;1.08;;;7.50;99.90;;;;;;4927027;29;20052;-68
2022/01/23 15:03:07;;;;;;;1.70;1.10;;;7.50;99.90;;;;;;4927281;29;20123;-68
2022/01/23 15:05:38;;;;;;;1.85;0.70;;;7.50;99.90;;;;;;4908692;29;20495;-69
2022/01/23 15:08:07;;;;;;;0.80;0.63;;;7.50;99.90;;;;;;4926226;29;20043;-69
2022/01/23 15:10:37;;;;;;;1.13;0.70;;;7.50;99.90;;;;;;4927576;29;20044;-69
2022/01/23 15:13:05;;;;;;;1.02;0.70;;;7.60;99.90;;;;;;4909946;29;20048;-69
2022/01/23 15:15:32;;;;;;;0.90;0.57;;;7.70;99.90;;;;;;4930902;29;20047;-71
2022/01/23 15:17:57;;;;;;;2.15;0.50;;;7.50;99.90;;;;;;4919584;29;20184;-70
2022/01/23 15:20:23;;;;;;;1.20;0.52;;;8.10;99.90;;;;;;4919261;29;20555;-71
2022/01/23 15:22:49;;;;;;;2.00;0.60;;;7.40;99.90;;;;;;4936133;29;20062;-70
2022/01/23 15:25:16;;;;;;;1.58;0.60;;;7.90;99.90;;;;;;4936416;29;20057;-71
2022/01/23 15:27:42;;;;;;;1.30;0.70;;;7.30;99.90;;;;;;4918869;29;20051;-69
2022/01/23 15:30:11;;;;;;;2.33;0.80;;;7.40;99.90;;;;;;4936208;29;20070;-70
2022/01/23 15:32:37;;;;;;;0.93;0.75;;;7.40;99.90;;;;;;4936142;29;20051;-70
2022/01/23 15:35:04;;;;;;;2.42;0.82;;;7.70;99.90;;;;;;4936131;29;20118;-72
2022/01/23 15:37:30;;;;;;;1.20;0.70;;;7.40;99.90;;;;;;4936280;29;20061;-71
2022/01/23 15:39:56;;;;;;;1.85;0.90;;;7.30;99.90;;;;;;4936012;29;20051;-69
2022/01/23 15:42:22;;;;;;;2.03;0.80;;;7.40;99.90;;;;;;4935535;29;20139;-69
2022/01/23 15:44:47;;;;;;;2.30;1.10;;;7.60;99.90;;;;;;4936217;29;20043;-68
2022/01/23 15:47:13;;;;;;;2.85;1.10;;;7.20;99.90;;;;;;4936301;29;20501;-69
2022/01/23 15:49:39;;;;;;;2.05;0.95;;;7.40;99.90;;;;;;4918755;29;20126;-70
2022/01/23 15:52:05;;;;;;;2.30;1.15;;;7.50;99.90;;;;;;4936473;29;20051;-69
2022/01/23 15:54:34;;;;;;;2.45;1.40;;;7.30;99.90;;;;;;4936178;29;20092;-70
2022/01/23 15:57:00;;;;;;;3.38;1.70;;;7.40;99.90;;;;;;4935629;29;20047;-69
2022/01/23 15:59:26;;;;;;;3.75;2.38;;;7.40;99.90;;;;;;4935936;29;20047;-70
2022/01/23 16:01:52;;;;;;;3.70;2.47;;;7.60;99.90;;;;;;4935920;29;20048;-68
2022/01/23 16:04:20;;;;;;;4.10;2.03;;;7.60;99.90;;;;;;4919208;29;20070;-70
2022/01/23 16:06:46;;;;;;;3.10;1.83;;;7.60;99.90;;;;;;4935830;29;20044;-70
2022/01/23 16:09:13;;;;;;;2.38;1.75;;;7.50;99.90;;;;;;4903291;29;20551;-70
2022/01/23 16:11:39;;;;;;;2.05;1.10;;;7.70;99.90;;;;;;4919090;29;20107;-69
2022/01/23 16:14:04;;;;;;;1.63;0.90;;;7.60;99.90;;;;;;4933462;29;20051;-69
2022/01/23 16:16:30;;;;;;;7.78;4.22;;;7.30;99.90;;;;;;4916185;29;20046;-72
2022/01/23 16:18:56;;;;;;;3.42;2.10;;;7.40;99.90;;;;;;4899748;29;20052;-73
2022/01/23 16:21:23;;;;;;;1.63;1.00;;;7.30;99.90;;;;;;4900643;29;20099;-73
2022/01/23 16:23:49;;;;;;;2.47;1.10;;;7.50;99.90;;;;;;4916869;29;20140;-68
2022/01/23 16:26:17;;;;;;;4.35;3.95;;;7.40;99.90;;;;;;4899888;29;20048;-69
2022/01/23 16:28:43;;;;;;;1.55;1.20;;;7.30;99.90;;;;;;4899168;29;20052;-70
2022/01/23 16:31:09;;;;;;;3.28;2.88;;;7.20;99.90;;;;;;4917663;29;20382;-68